Time;durP1;ratioP1;P1;durP2;ratioP2;P2;SDS_P1;SDS_P2;PMS_P1;PMS_P2;Temp;Humidity;BMP_temperature;BMP_pressure;BME280_temperature;BME280_humidity;BME280_pressure;Samples;Min_cycle;Max_cycle;Signal;HPM_P1;HPM_P2
2022/11/02 00:02:44;;;;;;;7.30;6.57;;;;;;;21.70;39.22;95706.03;6040136;28;103671;-70
2022/11/02 00:05:47;;;;;;;7.67;6.60;;;;;;;21.69;39.28;95704.44;6039839;28;103754;-70
2022/11/02 00:08:52;;;;;;;6.70;5.77;;;;;;;21.67;39.13;95703.91;6040858;28;103584;-71
2022/11/02 00:11:55;;;;;;;7.63;6.77;;;;;;;21.68;39.23;95705.53;6029942;28;104698;-70
2022/11/02 00:14:58;;;;;;;6.63;6.03;;;;;;;21.68;39.05;95706.31;6040575;28;103224;-68
2022/11/02 00:18:05;;;;;;;6.50;5.90;;;;;;;21.68;39.39;95705.53;6026575;28;103414;-69
2022/11/02 00:21:08;;;;;;;7.70;6.23;;;;;;;21.67;39.36;95711.91;6039848;28;103939;-69
2022/11/02 00:24:12;;;;;;;7.33;6.63;;;;;;;21.68;39.16;95713.50;6030382;28;103687;-68
2022/11/02 00:27:15;;;;;;;7.60;5.30;;;;;;;21.67;39.01;95709.22;6039815;28;104187;-69
2022/11/02 00:30:19;;;;;;;6.33;5.73;;;;;;;21.67;39.47;95709.22;6038128;28;103726;-69
2022/11/02 00:33:22;;;;;;;6.50;5.87;;;;;;;21.66;39.23;95703.13;6028911;28;103876;-68
2022/11/02 00:36:26;;;;;;;9.17;6.27;;;;;;;21.66;38.90;95703.13;6039791;28;103908;-69
2022/11/02 00:39:30;;;;;;;7.47;6.23;;;;;;;21.66;38.93;95707.66;6040016;28;103876;-72
2022/11/02 00:42:34;;;;;;;8.43;6.10;;;;;;;21.65;38.76;95704.19;6039658;28;103615;-70
2022/11/02 00:45:37;;;;;;;10.03;6.10;;;;;;;21.65;38.97;95706.06;6029155;28;103889;-70
2022/11/02 00:48:40;;;;;;;6.30;5.70;;;;;;;21.65;39.04;95706.06;6038770;28;103880;-69
2022/11/02 00:51:43;;;;;;;7.13;5.90;;;;;;;21.64;39.27;95699.16;6031027;28;104067;-69
2022/11/02 00:54:47;;;;;;;6.80;6.20;;;;;;;21.64;38.81;95699.16;6038842;28;103641;-70
2022/11/02 00:57:50;;;;;;;9.20;5.93;;;;;;;21.62;39.09;95699.44;6029859;28;104129;-69
2022/11/02 01:00:55;;;;;;;7.93;5.97;;;;;;;21.63;39.01;95695.69;6039440;28;104065;-69
2022/11/02 01:03:58;;;;;;;6.83;5.40;;;;;;;21.63;38.80;95700.22;6038422;28;103784;-69
2022/11/02 01:07:02;;;;;;;8.53;5.40;;;;;;;21.63;39.24;95695.69;6034766;28;103644;-69
2022/11/02 01:10:08;;;;;;;6.77;5.23;;;;;;;21.63;38.84;95697.56;6034809;28;104428;-70
2022/11/02 01:13:11;;;;;;;6.73;6.03;;;;;;;21.62;38.77;95688.00;6039294;28;103854;-70
2022/11/02 01:16:14;;;;;;;9.60;5.60;;;;;;;21.62;38.98;95693.31;6038926;28;103888;-70
2022/11/02 01:19:17;;;;;;;8.03;5.43;;;;;;;21.61;38.94;95689.88;6028678;28;104813;-69
2022/11/02 01:22:20;;;;;;;7.77;5.10;;;;;;;21.59;39.29;95688.56;6039220;28;103759;-69
2022/11/02 01:25:25;;;;;;;7.60;5.87;;;;;;;21.61;39.11;95697.84;6034746;28;103550;-69
2022/11/02 01:28:28;;;;;;;7.07;5.83;;;;;;;21.60;38.81;95692.81;6038494;28;103680;-69
2022/11/02 01:31:32;;;;;;;6.23;5.63;;;;;;;21.60;39.17;95695.47;6027765;28;103677;-69
2022/11/02 01:34:35;;;;;;;6.63;5.10;;;;;;;21.59;39.11;95692.03;6039178;28;103724;-70
2022/11/02 01:37:38;;;;;;;7.50;5.50;;;;;;;21.59;38.78;95693.91;6043749;28;104468;-70
2022/11/02 01:40:42;;;;;;;7.83;5.60;;;;;;;21.58;38.96;95693.13;6037971;28;103795;-69
2022/11/02 01:43:46;;;;;;;5.97;5.37;;;;;;;21.57;38.93;95688.06;6035721;28;103897;-69
2022/11/02 01:46:49;;;;;;;6.90;5.07;;;;;;;21.57;39.10;95693.41;6038508;28;103754;-69
2022/11/02 01:49:57;;;;;;;5.90;5.30;;;;;;;21.56;39.14;95681.97;6042608;28;104437;-69
2022/11/02 01:53:01;;;;;;;6.07;4.80;;;;;;;21.58;38.85;95684.34;6033472;28;103710;-69
2022/11/02 01:56:06;;;;;;;7.13;5.07;;;;;;;21.56;38.61;95681.97;6033627;28;104403;-69
2022/11/02 01:59:12;;;;;;;7.80;5.20;;;;;;;21.56;38.90;95681.97;6021267;28;103947;-69
2022/11/02 02:02:19;;;;;;;5.80;5.23;;;;;;;21.55;39.08;95677.72;6041472;28;103952;-69
2022/11/02 02:05:24;;;;;;;6.80;5.57;;;;;;;21.55;39.05;95684.91;6026160;28;103672;-70
2022/11/02 02:08:28;;;;;;;7.90;5.80;;;;;;;21.54;38.97;95681.44;6029243;28;103756;-68
2022/11/02 02:11:34;;;;;;;6.13;5.20;;;;;;;21.54;38.67;95678.78;6042293;28;104535;-66
2022/11/02 02:14:38;;;;;;;5.77;4.80;;;;;;;21.55;38.72;95677.72;6039636;28;103849;-68
2022/11/02 02:17:48;;;;;;;7.10;5.60;;;;;;;21.54;38.58;95672.69;6035313;28;104442;-67
2022/11/02 02:21:05;;;;;;;7.13;5.20;;;;;;;21.53;38.92;95666.56;6042365;28;103564;-67
2022/11/02 02:24:30;;;;;;;5.53;4.60;;;;;;;21.54;39.03;95667.34;6042973;28;103688;-67
2022/11/02 02:27:50;;;;;;;5.70;5.13;;;;;;;21.54;38.97;95672.69;6032282;28;104431;-67
2022/11/02 02:30:58;;;;;;;8.17;5.07;;;;;;;21.51;38.58;95672.16;6041242;28;103810;-67
2022/11/02 02:34:09;;;;;;;7.57;5.57;;;;;;;21.53;38.92;95666.56;6041204;28;103652;-67
2022/11/02 02:37:17;;;;;;;7.40;5.40;;;;;;;21.51;38.95;95669.50;6042103;28;103898;-68
2022/11/02 02:40:25;;;;;;;7.67;4.90;;;;;;;21.52;39.02;95662.31;6034548;28;103905;-67
2022/11/02 02:43:36;;;;;;;5.77;5.20;;;;;;;21.51;38.86;95674.84;6041019;28;103918;-67
2022/11/02 02:46:45;;;;;;;5.53;4.90;;;;;;;21.49;38.87;95660.19;6041590;28;103783;-67
2022/11/02 02:49:55;;;;;;;7.07;5.30;;;;;;;21.49;38.87;95671.63;6030297;28;103703;-67
2022/11/02 02:53:02;;;;;;;6.43;4.93;;;;;;;21.49;39.04;95676.97;6042174;28;106455;-67
2022/11/02 02:56:07;;;;;;;6.90;5.90;;;;;;;21.49;38.72;95666.31;6042154;28;103587;-67
2022/11/02 02:59:20;;;;;;;5.87;5.27;;;;;;;21.48;38.99;95667.38;6041462;28;104377;-68
2022/11/02 03:02:25;;;;;;;5.53;4.40;;;;;;;21.47;38.96;95663.16;6030087;28;104183;-68
2022/11/02 03:05:32;;;;;;;5.40;4.90;;;;;;;21.47;38.48;95668.47;6040805;28;103672;-69
2022/11/02 03:08:38;;;;;;;5.40;4.90;;;;;;;21.46;38.75;95664.22;6040947;28;104145;-69
2022/11/02 03:11:50;;;;;;;6.53;5.33;;;;;;;21.46;38.93;95663.44;6037017;28;105702;-68
2022/11/02 03:15:10;;;;;;;6.17;5.00;;;;;;;21.46;38.23;95666.88;6035623;28;103774;-67
2022/11/02 03:18:22;;;;;;;6.23;5.03;;;;;;;21.46;38.32;95669.56;6039947;28;103860;-68
2022/11/02 03:21:33;;;;;;;8.90;5.70;;;;;;;21.45;38.66;95673.28;6040494;28;103870;-69
2022/11/02 03:24:45;;;;;;;5.90;5.00;;;;;;;21.46;38.58;95674.88;6030567;28;104898;-69
2022/11/02 03:27:56;;;;;;;7.77;5.27;;;;;;;21.45;38.72;95673.28;6040871;28;103727;-69
2022/11/02 03:31:09;;;;;;;5.50;5.00;;;;;;;21.44;38.27;95671.72;6039693;28;103911;-69
2022/11/02 03:34:20;;;;;;;5.70;5.00;;;;;;;21.45;38.50;95667.19;6040251;28;105660;-68
2022/11/02 03:37:29;;;;;;;5.67;5.17;;;;;;;21.43;38.74;95675.47;6034997;28;104132;-69
2022/11/02 03:40:38;;;;;;;8.50;5.40;;;;;;;21.44;38.21;95679.69;6039999;28;103717;-69
2022/11/02 03:43:42;;;;;;;6.00;5.40;;;;;;;21.43;38.30;95675.47;6040342;28;103668;-69
2022/11/02 03:46:47;;;;;;;5.60;5.10;;;;;;;21.42;38.79;95673.09;6030216;28;103833;-69
2022/11/02 03:49:53;;;;;;;7.10;5.27;;;;;;;21.43;38.48;95680.00;6040147;28;104103;-68
2022/11/02 03:53:01;;;;;;;5.10;4.63;;;;;;;21.43;38.57;95672.00;6040278;28;103718;-68
2022/11/02 03:56:08;;;;;;;5.97;5.43;;;;;;;21.41;38.36;95674.94;6039604;28;103676;-69
2022/11/02 03:59:12;;;;;;;5.93;5.40;;;;;;;21.40;38.25;95675.25;6030946;28;103477;-69
2022/11/02 04:02:18;;;;;;;6.00;5.07;;;;;;;21.40;38.39;95668.03;6038974;28;103797;-69
2022/11/02 04:05:28;;;;;;;6.97;6.23;;;;;;;21.37;38.11;95675.81;6040464;28;103729;-70
2022/11/02 04:08:35;;;;;;;9.77;7.60;;;;;;;21.35;38.53;95667.31;6036492;28;104148;-68
2022/11/02 04:15:00;;;;;;;8.50;6.87;;;;;;;21.31;39.32;95671.59;6017534;29;106285;-70
2022/11/02 04:21:25;;;;;;;10.30;9.00;;;;;;;21.31;39.71;95663.63;6027657;28;104299;-69
2022/11/02 04:27:46;;;;;;;21.03;18.77;;;;;;;21.18;38.54;95665.13;6005976;28;104395;-67
2022/11/02 04:30:49;;;;;;;34.67;31.10;;;;;;;21.11;37.89;95659.34;6038076;28;104132;-67
2022/11/02 04:33:53;;;;;;;43.10;38.90;;;;;;;21.05;37.08;95663.94;6029798;28;103839;-67
2022/11/02 04:36:56;;;;;;;37.20;31.50;;;;;;;21.01;36.80;95662.91;6040029;28;103797;-67
2022/11/02 04:39:58;;;;;;;26.20;23.90;;;;;;;20.90;36.76;95664.88;6039103;28;104013;-67
2022/11/02 04:43:02;;;;;;;20.83;18.63;;;;;;;20.86;36.60;95674.50;6035535;28;103872;-66
2022/11/02 04:46:05;;;;;;;18.83;16.80;;;;;;;20.81;36.19;95666.53;6034364;28;103883;-67
2022/11/02 04:49:11;;;;;;;18.80;17.00;;;;;;;20.89;36.79;95671.25;6040314;28;103886;-68
2022/11/02 04:52:14;;;;;;;14.53;12.87;;;;;;;20.92;37.01;95678.66;6037276;28;103739;-67
2022/11/02 04:55:17;;;;;;;16.13;13.47;;;;;;;20.96;37.75;95676.22;6011784;28;103599;-69
2022/11/02 04:58:20;;;;;;;15.97;11.43;;;;;;;21.06;39.14;95675.38;6029544;28;103948;-66
2022/11/02 05:01:25;;;;;;;11.80;10.60;;;;;;;21.09;39.00;95674.81;6032616;28;103428;-66
2022/11/02 05:04:30;;;;;;;15.23;10.13;;;;;;;21.08;39.06;95681.19;6039455;28;103792;-66
2022/11/02 05:07:33;;;;;;;12.07;10.10;;;;;;;21.09;38.98;95678.25;6028957;28;103514;-66
2022/11/02 05:10:36;;;;;;;11.30;8.77;;;;;;;21.10;39.23;95679.84;6037075;28;103553;-67
2022/11/02 05:13:41;;;;;;;11.63;7.90;;;;;;;21.10;39.01;95685.16;6043529;28;103902;-67
2022/11/02 05:16:44;;;;;;;12.30;8.67;;;;;;;21.06;38.89;95686.81;6042812;28;103762;-66
2022/11/02 05:19:49;;;;;;;12.57;7.60;;;;;;;21.07;38.11;95684.94;6028111;28;104057;-65
2022/11/02 05:22:52;;;;;;;11.00;9.60;;;;;;;21.06;39.20;95686.03;6039013;28;104216;-69
2022/11/02 05:25:56;;;;;;;12.33;8.73;;;;;;;20.90;38.05;95691.47;6042518;28;104669;-66
2022/11/02 05:28:59;;;;;;;11.83;8.67;;;;;;;20.82;37.98;95700.03;6036205;28;103739;-67
2022/11/02 05:32:02;;;;;;;9.63;7.43;;;;;;;20.84;37.78;95703.25;6038113;28;103738;-67
2022/11/02 05:35:08;;;;;;;9.37;8.20;;;;;;;20.81;38.02;95698.47;6044078;28;103509;-68
2022/11/02 05:38:11;;;;;;;10.80;8.50;;;;;;;20.80;37.76;95702.19;6042660;28;104169;-67
2022/11/02 05:41:14;;;;;;;8.10;7.17;;;;;;;20.77;37.80;95708.09;6030333;28;103695;-67
2022/11/02 05:44:17;;;;;;;13.80;8.07;;;;;;;20.77;37.99;95708.09;6041029;28;103702;-66
2022/11/02 05:47:20;;;;;;;12.83;8.27;;;;;;;20.78;38.04;95712.31;6041864;28;104884;-67
2022/11/02 05:50:25;;;;;;;12.00;9.33;;;;;;;20.80;38.17;95715.50;6041507;28;103737;-67
2022/11/02 05:53:30;;;;;;;11.60;8.40;;;;;;;20.76;38.23;95717.13;6031316;28;103845;-67
2022/11/02 05:56:34;;;;;;;14.23;9.90;;;;;;;20.78;38.32;95730.16;6043755;28;103812;-67
2022/11/02 05:59:37;;;;;;;11.70;9.23;;;;;;;20.72;38.37;95731.28;6043156;28;103908;-67
2022/11/02 06:02:40;;;;;;;11.73;10.53;;;;;;;20.81;38.47;95741.03;6042963;28;103765;-67
2022/11/02 06:05:45;;;;;;;16.40;11.00;;;;;;;21.23;38.03;95739.59;6035809;28;106679;-66
2022/11/02 06:08:48;;;;;;;11.97;10.40;;;;;;;22.59;36.16;95744.22;6043322;28;106487;-67
2022/11/02 06:11:51;;;;;;;13.70;10.43;;;;;;;23.37;34.47;95749.84;6042934;28;104377;-67
2022/11/02 06:14:54;;;;;;;15.73;12.20;;;;;;;23.16;35.65;95750.16;6033773;28;104509;-67
2022/11/02 06:17:58;;;;;;;14.03;11.40;;;;;;;21.80;37.88;95751.16;6043621;28;103499;-67
2022/11/02 06:21:03;;;;;;;17.23;13.73;;;;;;;21.45;38.42;95744.41;6042675;28;106710;-67
2022/11/02 06:24:07;;;;;;;18.73;16.53;;;;;;;21.35;39.03;95745.31;6043237;28;103629;-66
2022/11/02 06:27:10;;;;;;;29.97;22.40;;;;;;;21.38;39.35;95749.28;6032258;28;104774;-66
2022/11/02 06:30:13;;;;;;;25.00;19.40;;;;;;;21.43;39.57;95747.34;6041895;28;106713;-67
2022/11/02 06:33:17;;;;;;;21.57;19.17;;;;;;;21.49;38.82;95758.72;6043369;28;103807;-67
2022/11/02 06:36:21;;;;;;;21.93;19.00;;;;;;;21.54;39.21;95753.34;6042717;28;103687;-67
2022/11/02 06:39:24;;;;;;;20.40;18.27;;;;;;;21.62;38.78;95757.25;6032739;28;103525;-68
2022/11/02 06:42:28;;;;;;;20.13;17.10;;;;;;;21.67;38.67;95759.84;6042031;28;103869;-67
2022/11/02 06:45:31;;;;;;;21.80;15.80;;;;;;;21.68;38.80;95753.47;6042275;28;103735;-67
2022/11/02 06:48:34;;;;;;;24.03;15.77;;;;;;;21.68;38.57;95758.78;6037751;28;103983;-67
2022/11/02 06:51:39;;;;;;;22.57;16.47;;;;;;;21.75;38.61;95745.91;6037149;28;103429;-67
2022/11/02 06:54:42;;;;;;;16.97;15.20;;;;;;;21.75;38.87;95754.69;6043230;28;103463;-67
2022/11/02 06:57:45;;;;;;;19.00;15.97;;;;;;;21.80;38.69;95741.28;6042889;28;103711;-67
2022/11/02 07:00:49;;;;;;;17.77;15.00;;;;;;;21.83;38.92;95749.81;6031138;28;103715;-66
2022/11/02 07:03:52;;;;;;;18.53;14.33;;;;;;;21.84;38.60;95743.41;6043229;28;103670;-66
2022/11/02 07:06:56;;;;;;;19.97;14.50;;;;;;;21.89;38.71;95741.50;6041743;28;103736;-66
2022/11/02 07:09:59;;;;;;;24.80;14.90;;;;;;;21.89;39.85;95744.16;6042186;28;104768;-66
2022/11/02 07:13:03;;;;;;;17.17;14.57;;;;;;;21.97;39.75;95740.03;6030901;28;103863;-65
2022/11/02 07:16:07;;;;;;;19.03;13.93;;;;;;;21.98;39.91;95737.09;6041678;28;103742;-67
2022/11/02 07:19:10;;;;;;;18.33;14.30;;;;;;;22.03;40.15;95746.91;6042173;28;104054;-68
2022/11/02 07:22:14;;;;;;;17.77;13.00;;;;;;;22.05;39.77;95742.06;6039204;28;103866;-66
2022/11/02 07:25:17;;;;;;;18.07;12.30;;;;;;;22.09;39.52;95738.53;6036929;28;103978;-67
2022/11/02 07:28:21;;;;;;;18.60;11.60;;;;;;;22.13;39.31;95744.09;6041063;28;103718;-67
2022/11/02 07:31:24;;;;;;;14.73;11.50;;;;;;;22.14;39.28;95736.88;6041725;28;104037;-67
2022/11/02 07:34:27;;;;;;;15.37;11.87;;;;;;;22.16;39.47;95730.16;6032908;28;104017;-67
2022/11/02 07:37:31;;;;;;;13.23;11.20;;;;;;;22.18;39.06;95730.69;6041190;28;103715;-67
2022/11/02 07:40:37;;;;;;;12.83;11.07;;;;;;;22.22;38.82;95728.25;6041502;28;103755;-67
2022/11/02 07:43:40;;;;;;;13.07;11.80;;;;;;;22.24;38.96;95729.53;6040227;28;104378;-67
2022/11/02 07:46:45;;;;;;;15.40;11.53;;;;;;;22.20;39.19;95733.88;6030571;28;104857;-67
2022/11/02 07:49:48;;;;;;;16.40;12.53;;;;;;;22.15;40.46;95725.91;6041398;28;103882;-66
2022/11/02 07:52:55;;;;;;;13.80;12.30;;;;;;;22.16;40.44;95727.50;6041289;28;104579;-66
2022/11/02 07:56:00;;;;;;;18.50;11.27;;;;;;;22.17;40.05;95725.63;6042004;28;103450;-66
2022/11/02 07:59:03;;;;;;;17.07;11.37;;;;;;;22.17;39.92;95729.09;6030726;28;104173;-66
2022/11/02 08:02:09;;;;;;;17.43;11.60;;;;;;;22.19;39.60;95718.16;6041453;28;103918;-66
2022/11/02 08:05:12;;;;;;;17.50;11.30;;;;;;;22.18;40.27;95717.38;6042009;28;103710;-67
2022/11/02 08:08:18;;;;;;;14.17;11.13;;;;;;;22.22;39.62;95717.56;6035364;28;103894;-66
2022/11/02 08:11:21;;;;;;;16.63;11.30;;;;;;;22.23;39.38;95711.16;6040178;28;106792;-66
2022/11/02 08:14:24;;;;;;;13.80;10.20;;;;;;;22.23;39.22;95711.16;6040443;28;103891;-68
2022/11/02 08:17:27;;;;;;;11.27;10.00;;;;;;;22.23;39.45;95700.50;6041324;28;104956;-68
2022/11/02 08:20:30;;;;;;;17.67;9.90;;;;;;;22.23;39.27;95698.63;6031127;28;103720;-68
2022/11/02 08:23:35;;;;;;;13.67;9.13;;;;;;;22.24;38.82;95694.09;6041033;28;104027;-68
2022/11/02 08:26:38;;;;;;;13.00;9.80;;;;;;;22.26;38.50;95703.38;6041158;28;103910;-68
2022/11/02 08:29:46;;;;;;;10.33;9.23;;;;;;;22.24;38.72;95691.41;6040751;28;105100;-68
2022/11/02 08:32:49;;;;;;;11.97;9.30;;;;;;;22.24;38.58;95692.22;6030596;28;105628;-67
2022/11/02 08:36:03;;;;;;;15.23;9.73;;;;;;;22.26;38.87;95686.59;6040690;28;103668;-66
2022/11/02 08:39:08;;;;;;;13.50;9.37;;;;;;;22.26;38.75;95690.03;6041633;28;104528;-66
2022/11/02 08:42:14;;;;;;;14.90;8.97;;;;;;;22.28;38.46;95679.09;6035399;28;103712;-66
2022/11/02 08:45:17;;;;;;;15.57;9.93;;;;;;;22.28;38.83;95677.22;6033989;28;103733;-68
2022/11/02 08:48:20;;;;;;;13.93;9.77;;;;;;;22.27;39.07;95680.97;6041137;28;104196;-68
2022/11/02 08:51:23;;;;;;;14.23;9.30;;;;;;;22.24;39.09;95676.22;6040271;28;104877;-66
2022/11/02 08:54:27;;;;;;;14.57;10.33;;;;;;;22.26;39.10;95671.38;6029771;28;103641;-66
2022/11/02 08:57:31;;;;;;;12.20;9.97;;;;;;;22.26;38.57;95674.03;6039721;28;104241;-66
2022/11/02 09:00:35;;;;;;;12.10;9.30;;;;;;;22.27;38.74;95666.84;6040740;28;103870;-68
2022/11/02 09:03:38;;;;;;;11.37;8.73;;;;;;;22.26;39.34;95662.59;6040122;28;103948;-67
2022/11/02 09:06:41;;;;;;;13.07;9.43;;;;;;;22.27;39.13;95664.16;6029741;28;103876;-67
2022/11/02 09:09:45;;;;;;;15.60;9.40;;;;;;;22.26;38.87;95662.59;6040576;28;104221;-67
2022/11/02 09:12:48;;;;;;;13.17;8.47;;;;;;;22.26;38.79;95658.03;6039610;28;103883;-67
2022/11/02 09:15:53;;;;;;;12.30;9.33;;;;;;;22.27;38.78;95661.50;6035349;28;104543;-67
2022/11/02 09:18:56;;;;;;;9.37;8.47;;;;;;;22.28;38.82;95655.88;6033388;28;103756;-66
2022/11/02 09:21:59;;;;;;;11.57;9.13;;;;;;;22.27;38.92;95648.16;6039836;28;103774;-67
2022/11/02 09:25:09;;;;;;;12.80;9.40;;;;;;;22.29;38.88;95640.66;6040548;28;103550;-67
2022/11/02 09:28:14;;;;;;;9.20;8.10;;;;;;;22.31;38.64;95641.16;6028339;28;103786;-67
2022/11/02 09:31:17;;;;;;;11.57;7.23;;;;;;;22.32;39.36;95642.75;6040210;28;103432;-67
2022/11/02 09:34:20;;;;;;;14.27;9.63;;;;;;;22.31;38.60;95638.50;6039676;28;104951;-66
2022/11/02 09:37:23;;;;;;;10.43;8.40;;;;;;;22.37;38.89;95634.69;6039926;28;103973;-67
2022/11/02 09:40:29;;;;;;;13.37;8.00;;;;;;;22.37;38.86;95632.03;6030206;28;103543;-67
2022/11/02 09:43:45;;;;;;;11.90;8.60;;;;;;;22.38;39.01;95626.38;6039391;28;104122;-67
2022/11/02 09:46:48;;;;;;;9.57;7.73;;;;;;;22.41;39.03;95620.47;6039079;28;104022;-67
2022/11/02 09:50:18;;;;;;;13.17;8.53;;;;;;;22.44;39.19;95619.09;6032544;28;103417;-66
2022/11/02 09:53:27;;;;;;;16.10;14.50;;;;;;;22.44;39.30;95612.97;6038965;28;103834;-67
2022/11/02 09:56:33;;;;;;;96.50;89.17;;;;;;;22.44;39.48;95600.41;6041979;28;103758;-67
2022/11/02 09:59:36;;;;;;;275.00;256.33;;;;;;;22.45;39.72;95602.00;6044102;28;103750;-66
2022/11/02 10:02:51;;;;;;;311.83;291.17;;;;;;;22.46;39.89;95602.78;6032617;28;103574;-66
2022/11/02 10:05:59;;;;;;;328.97;306.87;;;;;;;22.46;39.94;95592.91;6042803;28;103837;-67
2022/11/02 10:09:13;;;;;;;341.90;318.40;;;;;;;22.47;39.73;95597.16;6043779;28;103832;-67
2022/11/02 10:12:26;;;;;;;336.50;313.80;;;;;;;22.47;39.88;95583.81;6038657;28;104631;-69
2022/11/02 10:15:38;;;;;;;294.97;274.97;;;;;;;22.49;39.30;95581.66;6038061;28;103496;-68
2022/11/02 10:18:42;;;;;;;259.67;241.47;;;;;;;22.51;39.16;95584.00;6041945;28;103831;-66
2022/11/02 10:21:48;;;;;;;273.53;255.33;;;;;;;22.50;39.54;95567.22;6042721;28;103955;-67
2022/11/02 10:24:55;;;;;;;230.63;214.47;;;;;;;22.51;39.27;95565.34;6033046;28;106793;-67
2022/11/02 10:28:09;;;;;;;241.40;224.20;;;;;;;22.49;39.36;95565.66;6041896;28;104290;-67
2022/11/02 10:31:22;;;;;;;225.17;209.67;;;;;;;22.49;39.63;95562.19;6042355;28;103734;-67
2022/11/02 10:34:28;;;;;;;190.03;176.33;;;;;;;22.49;39.36;95559.53;6042882;28;103578;-67
2022/11/02 10:37:44;;;;;;;183.17;170.07;;;;;;;22.48;39.33;95553.41;6031304;28;103880;-67
2022/11/02 10:41:09;;;;;;;167.17;154.77;;;;;;;22.48;39.48;95547.28;6042597;28;104446;-67
2022/11/02 10:44:24;;;;;;;159.97;148.73;;;;;;;22.46;39.40;95536.91;6042359;28;103882;-67
2022/11/02 10:47:30;;;;;;;156.60;144.80;;;;;;;22.46;39.33;95534.25;6032503;28;104246;-67
2022/11/02 10:50:46;;;;;;;147.50;136.90;;;;;;;22.45;38.78;95532.66;6042099;28;103861;-66
2022/11/02 10:53:51;;;;;;;139.13;129.23;;;;;;;22.44;38.84;95531.06;6041990;28;103863;-67
2022/11/02 10:56:56;;;;;;;129.70;120.60;;;;;;;22.43;39.19;95524.16;6041900;28;103692;-66
2022/11/02 11:00:27;;;;;;;128.83;119.10;;;;;;;22.43;39.45;95524.16;6032166;28;103877;-66
2022/11/02 11:03:30;;;;;;;123.60;114.50;;;;;;;22.42;39.44;95517.25;6042293;28;105629;-66
2022/11/02 11:06:37;;;;;;;116.97;108.67;;;;;;;22.39;38.99;95515.19;6041888;28;103655;-66
2022/11/02 11:09:48;;;;;;;111.83;103.63;;;;;;;22.38;39.32;95508.28;6035849;28;103489;-67
2022/11/02 11:12:51;;;;;;;111.57;103.83;;;;;;;22.38;39.38;95509.06;6042072;28;103894;-66
2022/11/02 11:15:56;;;;;;;102.30;94.80;;;;;;;22.40;39.66;95501.56;6042034;28;103703;-65
2022/11/02 11:19:00;;;;;;;102.27;95.20;;;;;;;22.42;39.17;95494.03;6041423;28;103919;-65
2022/11/02 11:22:26;;;;;;;99.37;92.40;;;;;;;22.42;39.67;95491.38;6031650;28;103938;-64
2022/11/02 11:25:29;;;;;;;94.57;87.80;;;;;;;22.40;39.88;95490.88;6041921;28;106111;-64
2022/11/02 11:28:36;;;;;;;87.80;81.30;;;;;;;22.39;39.22;95488.53;6041793;28;106495;-66
2022/11/02 11:31:41;;;;;;;83.20;77.27;;;;;;;22.39;39.42;95483.97;6041036;28;103696;-66
2022/11/02 11:34:49;;;;;;;77.30;71.20;;;;;;;22.38;39.53;95478.94;6034021;28;105390;-65
2022/11/02 11:37:57;;;;;;;73.43;68.03;;;;;;;22.38;39.07;95474.41;6041478;28;103716;-64
2022/11/02 11:41:03;;;;;;;68.30;63.00;;;;;;;22.37;39.16;95466.69;6041369;28;103284;-64
2022/11/02 11:44:13;;;;;;;63.23;58.37;;;;;;;22.34;39.53;95459.25;6032052;28;103849;-64
2022/11/02 11:47:24;;;;;;;62.33;57.47;;;;;;;22.32;39.70;95454.22;6041480;28;104032;-64
2022/11/02 11:50:27;;;;;;;58.30;53.50;;;;;;;22.31;39.28;95460.66;6042434;28;105852;-66
2022/11/02 11:53:34;;;;;;;55.43;51.17;;;;;;;22.30;39.51;95456.41;6040892;28;103622;-68
2022/11/02 11:56:37;;;;;;;54.00;49.93;;;;;;;22.33;38.88;95453.16;6030140;28;103883;-68
2022/11/02 11:59:46;;;;;;;50.13;46.37;;;;;;;22.33;38.96;95449.69;6041480;28;103923;-67
2022/11/02 12:03:02;;;;;;;51.10;46.90;;;;;;;22.33;39.13;95434.47;6041763;28;107863;-67
2022/11/02 12:06:17;;;;;;;47.93;44.27;;;;;;;22.32;39.40;95437.44;6036420;28;103902;-67
2022/11/02 12:09:30;;;;;;;44.77;41.13;;;;;;;22.34;39.25;95435.28;6035071;28;103646;-67
2022/11/02 12:12:49;;;;;;;43.80;40.43;;;;;;;22.35;39.60;95429.66;6041331;28;103934;-68
2022/11/02 12:16:07;;;;;;;41.87;38.60;;;;;;;22.33;39.56;95428.34;6041479;28;104332;-68
2022/11/02 12:19:25;;;;;;;39.50;36.53;;;;;;;22.33;39.24;95420.34;6029721;28;103894;-68
2022/11/02 12:22:45;;;;;;;36.90;34.10;;;;;;;22.33;39.38;95409.69;6041703;28;103500;-68
2022/11/02 12:25:56;;;;;;;36.57;33.80;;;;;;;22.31;39.77;95409.22;6039804;28;103884;-66
2022/11/02 12:29:22;;;;;;;34.13;31.57;;;;;;;22.32;39.41;95405.44;6033258;28;103659;-69
2022/11/02 12:32:51;;;;;;;32.20;29.70;;;;;;;22.31;39.36;95412.66;6040944;28;105650;-67
2022/11/02 12:36:10;;;;;;;32.33;29.77;;;;;;;22.30;39.56;95403.09;6031381;28;103960;-68
2022/11/02 12:39:27;;;;;;;31.07;28.50;;;;;;;22.31;39.39;95406.53;6040244;28;103802;-67
2022/11/02 12:42:33;;;;;;;30.03;27.70;;;;;;;22.29;39.33;95398.06;6030795;28;105557;-66
2022/11/02 12:45:49;;;;;;;27.70;25.50;;;;;;;22.29;39.66;95400.72;6040623;28;103697;-69
2022/11/02 12:49:19;;;;;;;28.10;25.70;;;;;;;22.27;39.38;95397.56;6041476;28;103730;-68
2022/11/02 12:52:35;;;;;;;25.17;22.97;;;;;;;22.29;39.55;95390.06;6029985;28;103325;-69
2022/11/02 12:55:43;;;;;;;24.37;22.37;;;;;;;22.30;38.94;95394.28;6040377;28;103425;-68
2022/11/02 12:58:46;;;;;;;25.60;23.60;;;;;;;22.28;39.59;95388.47;6039765;28;103661;-68
2022/11/02 13:01:54;;;;;;;22.37;20.67;;;;;;;22.26;39.54;95388.78;6040637;28;105700;-68
2022/11/02 13:05:03;;;;;;;22.70;20.87;;;;;;;22.26;38.87;95388.00;6029559;28;103823;-68
2022/11/02 13:08:14;;;;;;;21.93;20.30;;;;;;;22.26;39.26;95391.44;6040473;28;103718;-67
2022/11/02 13:11:22;;;;;;;21.27;19.57;;;;;;;22.25;39.53;95381.88;6040585;28;106599;-68
2022/11/02 13:14:29;;;;;;;20.60;18.90;;;;;;;22.26;38.92;95377.31;6035100;28;103799;-69
2022/11/02 13:17:39;;;;;;;19.23;17.63;;;;;;;22.26;39.16;95374.66;6036145;28;104177;-69
2022/11/02 13:20:48;;;;;;;18.07;16.60;;;;;;;22.27;39.07;95382.34;6040559;28;103884;-68
2022/11/02 13:23:57;;;;;;;17.60;16.13;;;;;;;22.24;39.13;95382.16;6040011;28;103808;-68
2022/11/02 13:27:04;;;;;;;17.83;16.43;;;;;;;22.24;39.35;95369.63;6029954;28;104265;-69
2022/11/02 13:30:28;;;;;;;17.67;16.00;;;;;;;22.24;38.73;95368.84;6041514;28;103598;-69
2022/11/02 13:33:40;;;;;;;16.90;15.40;;;;;;;22.23;39.01;95375.25;6044204;28;103756;-68
2022/11/02 13:36:45;;;;;;;17.80;16.37;;;;;;;22.23;39.00;95372.59;6040503;28;103859;-69
2022/11/02 13:39:53;;;;;;;15.13;13.73;;;;;;;22.24;38.89;95368.84;6037582;28;103986;-68
2022/11/02 13:43:44;;;;;;;16.13;14.63;;;;;;;22.22;38.64;95376.34;6044654;28;104298;-68
2022/11/02 13:47:07;;;;;;;14.90;13.43;;;;;;;22.21;38.87;95374.78;6009508;28;103944;-68
2022/11/02 13:50:13;;;;;;;13.73;12.47;;;;;;;22.21;39.01;95372.09;6033537;28;103794;-68
2022/11/02 13:53:19;;;;;;;13.43;12.20;;;;;;;22.20;38.33;95365.19;6043596;28;103749;-68
2022/11/02 13:56:28;;;;;;;13.77;12.40;;;;;;;22.19;38.31;95368.97;6043713;28;104872;-69
2022/11/02 13:59:33;;;;;;;12.80;11.73;;;;;;;22.20;38.71;95375.88;6038992;28;103862;-68
2022/11/02 14:02:43;;;;;;;12.57;11.43;;;;;;;22.19;38.69;95363.63;6037787;28;104378;-68
2022/11/02 14:05:49;;;;;;;13.87;12.43;;;;;;;22.19;38.57;95363.63;6044196;28;105338;-67
2022/11/02 14:08:56;;;;;;;13.03;11.83;;;;;;;22.21;38.18;95372.09;6042842;28;103679;-68
2022/11/02 14:12:28;;;;;;;13.07;11.73;;;;;;;22.19;38.06;95371.63;6033478;28;104387;-68
2022/11/02 14:15:42;;;;;;;12.20;11.10;;;;;;;22.17;38.37;95368.44;5989082;28;103404;-68
2022/11/02 14:18:46;;;;;;;14.27;12.30;;;;;;;22.17;38.60;95368.44;6042873;28;103685;-67
2022/11/02 14:22:10;;;;;;;15.07;10.90;;;;;;;22.16;38.20;95374.84;6043097;28;104213;-67
2022/11/02 14:25:17;;;;;;;13.67;11.57;;;;;;;22.16;38.21;95370.31;6037104;28;103760;-67
2022/11/02 14:28:43;;;;;;;18.17;11.17;;;;;;;22.17;38.30;95381.75;6042376;28;103916;-68